createdAt,value
2022-09-07T00:00:39.322Z,8.62
2022-09-07T00:03:06.422Z,8.64
2022-09-07T00:05:33.244Z,8.65
2022-09-07T00:08:00.507Z,8.63
2022-09-07T00:10:28.022Z,8.59
2022-09-07T00:12:54.825Z,8.54
2022-09-07T00:15:23.084Z,8.53
2022-09-07T00:17:50.135Z,8.52
2022-09-07T00:20:17.031Z,8.54
2022-09-07T00:22:43.872Z,8.51
2022-09-07T00:25:10.848Z,8.49
2022-09-07T00:27:37.968Z,8.50
2022-09-07T00:30:05.563Z,8.51
2022-09-07T00:32:32.988Z,8.49
2022-09-07T00:34:59.674Z,8.43
2022-09-07T00:37:26.473Z,8.36
2022-09-07T00:39:53.534Z,8.30
2022-09-07T00:42:21.482Z,8.24
2022-09-07T00:44:59.941Z,8.17
2022-09-07T00:47:26.746Z,8.12
2022-09-07T00:49:56.553Z,8.08
2022-09-07T00:52:24.934Z,8.01
2022-09-07T00:54:54.460Z,7.96
2022-09-07T00:57:21.528Z,7.95
2022-09-07T00:59:53.533Z,7.86
2022-09-07T01:02:21.069Z,7.86
2022-09-07T01:04:49.599Z,7.89
2022-09-07T01:07:16.478Z,7.95
2022-09-07T01:09:44.114Z,8.00
2022-09-07T01:12:11.011Z,8.02
2022-09-07T01:14:41.772Z,8.01
2022-09-07T01:17:24.239Z,8.03
2022-09-07T01:20:09.661Z,8.04
2022-09-07T01:22:56.200Z,8.04
2022-09-07T01:25:41.636Z,8.06
2022-09-07T01:28:16.086Z,8.06
2022-09-07T01:30:51.574Z,8.03
2022-09-07T01:33:24.317Z,8.02
2022-09-07T01:35:58.482Z,7.98
2022-09-07T01:38:25.424Z,7.98
2022-09-07T01:40:57.394Z,7.98
2022-09-07T01:43:30.238Z,7.99
2022-09-07T01:45:58.533Z,8.00
2022-09-07T01:48:26.409Z,7.99
2022-09-07T01:51:00.129Z,8.01
2022-09-07T01:53:39.551Z,8.02
2022-09-07T01:56:21.113Z,7.95
2022-09-07T01:58:51.898Z,7.98
2022-09-07T02:01:28.119Z,7.98
2022-09-07T02:04:03.085Z,7.98
2022-09-07T02:06:34.999Z,7.90
2022-09-07T02:09:07.633Z,7.84
2022-09-07T02:11:38.309Z,7.83
2022-09-07T02:14:08.665Z,7.80
2022-09-07T02:16:37.213Z,7.80
2022-09-07T02:19:10.938Z,7.74
2022-09-07T02:21:40.555Z,7.76
2022-09-07T02:24:12.693Z,7.73
2022-09-07T02:26:40.454Z,7.69
2022-09-07T02:29:07.926Z,7.62
2022-09-07T02:31:35.230Z,7.63
2022-09-07T02:34:05.450Z,7.60
2022-09-07T02:36:36.542Z,7.54
2022-09-07T02:39:03.444Z,7.50
2022-09-07T02:41:30.405Z,7.46
2022-09-07T02:43:58.222Z,7.44
2022-09-07T02:46:36.490Z,7.44
2022-09-07T02:49:06.574Z,7.44
2022-09-07T02:51:52.960Z,7.44
2022-09-07T02:54:20.293Z,7.43
2022-09-07T02:57:02.640Z,7.42
2022-09-07T02:59:42.570Z,7.44
2022-09-07T03:02:14.138Z,7.45
2022-09-07T03:05:00.112Z,7.41
2022-09-07T03:07:35.882Z,7.37
2022-09-07T03:10:05.701Z,7.36
2022-09-07T03:12:44.930Z,7.38
2022-09-07T03:15:13.591Z,7.42
2022-09-07T03:17:40.808Z,7.48
2022-09-07T03:20:08.087Z,7.48
2022-09-07T03:22:35.072Z,7.48
2022-09-07T03:25:04.558Z,7.54
2022-09-07T03:27:32.656Z,7.62
2022-09-07T03:29:59.825Z,7.69
2022-09-07T03:32:32.268Z,7.83
2022-09-07T03:34:59.834Z,7.88
2022-09-07T03:37:26.761Z,7.95
2022-09-07T03:39:53.827Z,8.02
2022-09-07T03:42:21.223Z,8.05
2022-09-07T03:44:49.908Z,8.15
2022-09-07T03:47:17.271Z,8.16
2022-09-07T03:49:43.992Z,8.15
2022-09-07T03:52:11.285Z,8.24
2022-09-07T03:54:39.706Z,8.33
2022-09-07T03:57:06.957Z,8.45
2022-09-07T03:59:33.838Z,8.45
2022-09-07T04:02:01.669Z,8.42
2022-09-07T04:04:28.981Z,8.45
2022-09-07T04:06:58.345Z,8.48
2022-09-07T04:09:25.061Z,8.48
2022-09-07T04:11:52.215Z,8.55
2022-09-07T04:14:19.277Z,8.70
2022-09-07T04:16:46.358Z,8.76
2022-09-07T04:19:13.072Z,8.77
2022-09-07T04:21:40.273Z,8.85
2022-09-07T04:24:07.327Z,8.89
2022-09-07T04:26:36.052Z,8.95
2022-09-07T04:29:03.973Z,8.91
2022-09-07T04:31:33.084Z,8.89
2022-09-07T04:34:00.191Z,8.93
2022-09-07T04:36:27.369Z,9.03
2022-09-07T04:38:55.400Z,9.01
2022-09-07T04:41:23.042Z,8.95
2022-09-07T04:43:52.538Z,8.89
2022-09-07T04:46:21.901Z,8.88
2022-09-07T04:48:49.841Z,8.88
2022-09-07T04:51:20.056Z,8.84
2022-09-07T04:53:51.277Z,8.85
2022-09-07T04:56:18.894Z,8.84
2022-09-07T04:58:46.310Z,8.76
2022-09-07T05:01:14.895Z,8.74
2022-09-07T05:03:41.681Z,8.90
2022-09-07T05:06:08.678Z,9.11
2022-09-07T05:08:36.834Z,9.25
2022-09-07T05:11:03.768Z,9.29
2022-09-07T05:13:31.729Z,9.49
2022-09-07T05:15:59.545Z,9.66
2022-09-07T05:18:27.006Z,9.79
2022-09-07T05:20:54.615Z,9.80
2022-09-07T05:23:24.211Z,9.96
2022-09-07T05:25:50.962Z,10.16
2022-09-07T05:28:19.524Z,10.32
2022-09-07T05:36:22.877Z,10.26
2022-09-07T05:38:49.830Z,10.19
2022-09-07T05:41:18.395Z,10.17
2022-09-07T05:46:36.583Z,10.34
2022-09-07T05:49:03.967Z,10.65
2022-09-07T05:51:30.752Z,11.15
2022-09-07T05:53:57.539Z,11.50
2022-09-07T05:56:24.665Z,11.63
2022-09-07T05:58:51.633Z,11.74
2022-09-07T06:01:18.848Z,11.82
2022-09-07T06:03:45.780Z,11.72
2022-09-07T06:06:17.362Z,11.53
2022-09-07T06:08:46.307Z,11.33
2022-09-07T06:11:14.674Z,11.24
2022-09-07T06:13:42.074Z,11.36
2022-09-07T06:16:10.251Z,11.41
2022-09-07T06:18:38.437Z,11.46
2022-09-07T06:21:08.014Z,11.77
2022-09-07T06:23:35.749Z,11.96
2022-09-07T06:26:02.915Z,12.20
2022-09-07T06:28:30.519Z,12.34
2022-09-07T06:31:07.903Z,12.56
2022-09-07T06:33:35.391Z,12.74
2022-09-07T06:36:04.636Z,13.10
2022-09-07T06:38:32.883Z,13.17
2022-09-07T06:44:00.264Z,13.13
2022-09-07T06:49:14.512Z,14.02
2022-09-07T06:51:41.432Z,14.16
2022-09-07T06:56:56.633Z,13.81
2022-09-07T06:59:23.360Z,13.78
2022-09-07T07:01:50.154Z,14.03
2022-09-07T07:04:17.529Z,14.32
2022-09-07T07:06:44.404Z,14.26
2022-09-07T07:09:12.282Z,13.92
2022-09-07T07:11:39.342Z,13.83
2022-09-07T07:14:08.602Z,14.00
2022-09-07T07:16:36.094Z,14.26
2022-09-07T07:19:03.184Z,14.07
2022-09-07T07:21:42.985Z,13.59
2022-09-07T07:24:17.935Z,13.45
2022-09-07T07:26:48.651Z,13.55
2022-09-07T07:29:18.541Z,13.54
2022-09-07T07:31:47.192Z,13.44
2022-09-07T07:34:15.216Z,13.33
2022-09-07T07:36:42.145Z,13.56
2022-09-07T07:41:59.002Z,13.54
2022-09-07T07:44:28.960Z,13.41
2022-09-07T07:46:55.724Z,13.55
2022-09-07T07:49:23.159Z,13.61
2022-09-07T07:54:37.090Z,14.07
2022-09-07T07:57:07.323Z,14.25
2022-09-07T07:59:35.066Z,14.33
2022-09-07T08:02:05.503Z,14.17
2022-09-07T08:04:33.483Z,14.12
2022-09-07T08:07:00.317Z,14.31
2022-09-07T08:09:27.700Z,14.61
2022-09-07T08:11:55.174Z,14.84
2022-09-07T08:14:22.036Z,14.89
2022-09-07T08:16:48.972Z,14.88
2022-09-07T08:19:15.706Z,14.83
2022-09-07T08:21:42.368Z,14.82
2022-09-07T08:24:09.551Z,14.96
2022-09-07T08:26:36.242Z,15.12
2022-09-07T08:29:03.327Z,15.08
2022-09-07T08:31:30.262Z,15.24
2022-09-07T08:33:57.469Z,15.19
2022-09-07T08:36:24.590Z,15.12
2022-09-07T08:38:51.286Z,14.88
2022-09-07T08:41:24.137Z,14.70
2022-09-07T08:43:51.646Z,14.61
2022-09-07T08:46:18.277Z,14.53
2022-09-07T08:48:45.793Z,14.44
2022-09-07T08:51:34.864Z,14.45
2022-09-07T08:54:02.180Z,14.44
2022-09-07T08:56:33.785Z,14.41
2022-09-07T08:59:04.746Z,14.39
2022-09-07T09:01:41.203Z,14.28
2022-09-07T09:04:16.744Z,14.32
2022-09-07T09:07:08.057Z,14.30
2022-09-07T09:09:38.630Z,14.26
2022-09-07T09:12:11.862Z,14.16
2022-09-07T09:14:57.511Z,14.17
2022-09-07T09:17:33.155Z,14.32
2022-09-07T09:20:19.149Z,14.36
2022-09-07T09:22:46.132Z,14.42
2022-09-07T09:25:13.549Z,14.26
2022-09-07T09:27:40.580Z,14.13
2022-09-07T09:30:15.052Z,14.11
2022-09-07T09:32:44.104Z,14.27
2022-09-07T09:35:15.801Z,14.37
2022-09-07T09:37:43.481Z,14.47
2022-09-07T09:40:21.521Z,14.47
2022-09-07T09:42:58.370Z,14.54
2022-09-07T09:45:28.579Z,14.54
2022-09-07T09:47:58.011Z,14.46
2022-09-07T09:53:37.047Z,14.17
2022-09-07T09:56:04.607Z,13.86
2022-09-07T10:01:24.437Z,13.54
2022-09-07T10:06:24.461Z,13.25
2022-09-07T10:08:53.945Z,13.24
2022-09-07T10:14:25.734Z,13.77
2022-09-07T10:16:52.794Z,13.94
2022-09-07T10:19:30.136Z,14.17
2022-09-07T10:22:00.989Z,14.25
2022-09-07T10:24:31.949Z,14.14
2022-09-07T10:26:58.678Z,14.16
2022-09-07T10:29:29.024Z,14.28
2022-09-07T10:32:02.973Z,14.47
2022-09-07T10:34:35.772Z,14.64
2022-09-07T10:37:06.874Z,14.89
2022-09-07T10:39:39.817Z,15.08
2022-09-07T10:42:09.844Z,15.12
2022-09-07T10:44:39.390Z,15.21
2022-09-07T10:47:12.503Z,15.13
2022-09-07T10:50:21.787Z,15.09
2022-09-07T10:52:38.295Z,15.00
2022-09-07T10:55:07.865Z,14.95
2022-09-07T10:57:37.560Z,14.91
2022-09-07T11:00:14.667Z,14.97
2022-09-07T11:05:47.313Z,15.17
2022-09-07T11:08:17.338Z,15.42
2022-09-07T11:10:57.709Z,15.77
2022-09-07T11:13:28.883Z,15.82
2022-09-07T11:15:58.249Z,15.62
2022-09-07T11:18:50.954Z,15.59
2022-09-07T11:24:15.555Z,15.46
2022-09-07T11:26:51.293Z,15.27
2022-09-07T11:29:42.263Z,15.29
2022-09-07T11:32:18.219Z,15.34
2022-09-07T11:34:52.175Z,15.27
2022-09-07T11:37:19.256Z,15.00
2022-09-07T11:39:55.399Z,14.94
2022-09-07T11:45:12.196Z,15.10
2022-09-07T11:47:42.460Z,14.93
2022-09-07T11:50:31.067Z,14.90
2022-09-07T11:53:00.747Z,14.60
2022-09-07T11:55:29.885Z,14.40
2022-09-07T11:57:59.746Z,14.17
2022-09-07T12:00:39.339Z,13.84
2022-09-07T12:03:23.689Z,13.60
2022-09-07T12:05:56.875Z,13.43
2022-09-07T12:08:29.977Z,13.44
2022-09-07T12:11:11.844Z,13.38
2022-09-07T12:13:59.794Z,13.28
2022-09-07T12:16:29.356Z,13.16
2022-09-07T12:19:15.337Z,13.15
2022-09-07T12:21:43.634Z,12.98
2022-09-07T12:24:26.907Z,12.84
2022-09-07T12:26:54.390Z,12.70
2022-09-07T12:29:29.141Z,12.61
2022-09-07T12:32:52.665Z,12.47
2022-09-07T12:34:54.212Z,12.24
2022-09-07T12:37:28.373Z,11.96
2022-09-07T12:40:19.085Z,11.80
2022-09-07T12:43:09.838Z,11.57
2022-09-07T12:45:42.826Z,11.43
2022-09-07T12:48:09.653Z,11.33
2022-09-07T12:50:55.369Z,11.28
2022-09-07T12:53:36.364Z,11.17
2022-09-07T12:56:15.973Z,11.16
2022-09-07T12:58:45.256Z,11.15
2022-09-07T13:01:11.970Z,11.11
2022-09-07T13:03:52.795Z,11.07
2022-09-07T13:09:21.350Z,11.21
2022-09-07T13:11:48.563Z,11.33
2022-09-07T13:14:16.177Z,11.40
2022-09-07T13:19:46.748Z,11.61
2022-09-07T13:22:31.580Z,11.58
2022-09-07T13:25:00.367Z,11.58
2022-09-07T13:27:30.458Z,11.55
2022-09-07T13:30:15.444Z,11.56
2022-09-07T13:35:32.172Z,11.23
2022-09-07T13:38:02.259Z,11.11
2022-09-07T13:40:33.896Z,10.98
2022-09-07T13:43:03.130Z,10.88
2022-09-07T13:45:55.940Z,10.86
2022-09-07T13:48:42.176Z,10.79
2022-09-07T13:51:17.171Z,10.73
2022-09-07T13:53:56.555Z,10.79
2022-09-07T13:56:40.695Z,10.89
2022-09-07T13:59:12.413Z,10.73
2022-09-07T14:01:43.263Z,10.55
2022-09-07T14:04:28.758Z,10.49
2022-09-07T14:07:13.106Z,10.54
2022-09-07T14:09:40.629Z,10.55
2022-09-07T14:12:21.096Z,10.53
2022-09-07T14:15:09.182Z,10.48
2022-09-07T14:17:36.519Z,10.41
2022-09-07T14:20:03.903Z,10.39
2022-09-07T14:22:35.599Z,10.32
2022-09-07T14:25:05.053Z,10.29
2022-09-07T14:27:36.762Z,10.31
2022-09-07T14:30:22.653Z,10.25
2022-09-07T14:32:53.907Z,10.23
2022-09-07T14:35:22.330Z,10.16
2022-09-07T14:37:49.868Z,10.11
2022-09-07T14:40:22.200Z,10.11
2022-09-07T14:42:50.232Z,9.99
2022-09-07T14:45:31.045Z,9.87
2022-09-07T14:48:00.519Z,9.86
2022-09-07T14:50:33.324Z,9.81
2022-09-07T14:56:00.142Z,9.79
2022-09-07T14:58:30.832Z,9.79
2022-09-07T15:01:37.877Z,9.74
2022-09-07T15:04:16.763Z,9.72
2022-09-07T15:07:02.333Z,9.82
2022-09-07T15:09:38.394Z,9.94
2022-09-07T15:12:17.715Z,9.98
2022-09-07T15:14:45.030Z,10.12
2022-09-07T15:20:27.948Z,10.30
2022-09-07T15:22:56.096Z,10.40
2022-09-07T15:25:23.040Z,10.38
2022-09-07T15:27:50.297Z,10.31
2022-09-07T15:30:17.473Z,10.30
2022-09-07T15:32:57.395Z,10.24
2022-09-07T15:35:29.139Z,10.28
2022-09-07T15:38:58.818Z,10.30
2022-09-07T15:41:10.863Z,10.30
2022-09-07T15:43:38.490Z,10.36
2022-09-07T15:46:05.907Z,10.44
2022-09-07T15:48:33.387Z,10.52
2022-09-07T15:51:02.533Z,10.53
2022-09-07T15:56:20.159Z,10.50
2022-09-07T15:58:51.538Z,10.48
2022-09-07T16:04:05.290Z,10.46
2022-09-07T16:06:35.782Z,10.45
2022-09-07T16:09:06.117Z,10.45
2022-09-07T16:11:35.264Z,10.43
2022-09-07T16:14:03.497Z,10.42
2022-09-07T16:19:20.528Z,10.38
2022-09-07T16:22:00.629Z,10.36
2022-09-07T16:24:29.589Z,10.36
2022-09-07T16:27:02.577Z,10.34
2022-09-07T16:29:30.940Z,10.32
2022-09-07T16:34:58.781Z,10.30
2022-09-07T16:37:25.785Z,10.33
2022-09-07T16:39:53.438Z,10.30
2022-09-07T16:42:24.436Z,10.25
2022-09-07T16:44:52.992Z,10.27
2022-09-07T16:47:27.395Z,10.18
2022-09-07T16:49:54.390Z,10.17
2022-09-07T16:52:23.843Z,10.18
2022-09-07T16:54:51.299Z,10.21
2022-09-07T16:57:21.072Z,10.21
2022-09-07T16:59:48.315Z,10.18
2022-09-07T17:02:16.346Z,10.17
2022-09-07T17:04:51.829Z,10.09
2022-09-07T17:07:18.730Z,10.04
2022-09-07T17:09:46.700Z,9.98
2022-09-07T17:12:13.585Z,9.96
2022-09-07T17:14:41.230Z,9.98
2022-09-07T17:17:08.314Z,9.98
2022-09-07T17:19:35.235Z,9.96
2022-09-07T17:22:02.882Z,9.95
2022-09-07T17:24:32.328Z,9.92
2022-09-07T17:26:59.926Z,9.88
2022-09-07T17:29:30.868Z,9.88
2022-09-07T17:34:45.425Z,9.87
2022-09-07T17:37:12.527Z,9.85
2022-09-07T17:39:39.846Z,9.88
2022-09-07T17:42:07.538Z,9.89
2022-09-07T17:44:38.076Z,9.89
2022-09-07T17:47:06.165Z,9.87
2022-09-07T17:49:38.872Z,9.85
2022-09-07T17:52:05.805Z,9.84
2022-09-07T17:54:33.120Z,9.83
2022-09-07T17:57:00.129Z,9.80
2022-09-07T18:02:14.229Z,9.73
2022-09-07T18:04:41.140Z,9.73
2022-09-07T18:07:07.910Z,9.74
2022-09-07T18:09:35.524Z,9.71
2022-09-07T18:12:02.413Z,9.67
2022-09-07T18:14:30.142Z,9.65
2022-09-07T18:16:58.027Z,9.62
2022-09-07T18:19:25.934Z,9.65
2022-09-07T18:21:53.119Z,9.63
2022-09-07T18:24:21.883Z,9.63
2022-09-07T18:26:52.293Z,9.64
2022-09-07T18:29:29.365Z,9.59
2022-09-07T18:31:58.303Z,9.57
2022-09-07T18:34:25.306Z,9.57
2022-09-07T18:36:52.075Z,9.57
2022-09-07T18:39:19.054Z,9.54
2022-09-07T18:41:49.490Z,9.54
2022-09-07T18:47:17.507Z,9.56
2022-09-07T18:49:51.574Z,9.53
2022-09-07T18:55:07.254Z,9.50
2022-09-07T18:57:36.136Z,9.52
2022-09-07T19:00:04.895Z,9.50
2022-09-07T19:02:31.979Z,9.45
2022-09-07T19:07:45.818Z,9.30
2022-09-07T19:10:14.460Z,9.21
2022-09-07T19:12:45.517Z,9.12
2022-09-07T19:15:13.252Z,9.04
2022-09-07T19:17:40.431Z,8.99
2022-09-07T19:20:08.803Z,9.01
2022-09-07T19:22:39.412Z,9.01
2022-09-07T19:25:06.377Z,8.94
2022-09-07T19:27:33.245Z,8.90
2022-09-07T19:30:00.731Z,8.91
2022-09-07T19:32:27.662Z,8.85
2022-09-07T19:34:55.862Z,8.72
2022-09-07T19:37:25.798Z,8.61
2022-09-07T19:39:55.145Z,8.51
2022-09-07T19:42:22.613Z,8.44
2022-09-07T19:44:53.024Z,8.38
2022-09-07T19:47:20.118Z,8.32
2022-09-07T19:49:46.952Z,8.27
2022-09-07T19:52:13.949Z,8.23
2022-09-07T19:54:42.145Z,8.18
2022-09-07T19:57:13.192Z,8.15
2022-09-07T19:59:40.277Z,8.09
2022-09-07T20:02:07.429Z,8.05
2022-09-07T20:04:34.627Z,8.02
2022-09-07T20:07:01.970Z,7.98
2022-09-07T20:09:32.560Z,7.93
2022-09-07T20:12:01.793Z,7.90
2022-09-07T20:14:29.489Z,7.88
2022-09-07T20:16:56.203Z,7.85
2022-09-07T20:19:23.037Z,7.85
2022-09-07T20:21:50.058Z,7.94
2022-09-07T20:24:22.182Z,7.99
2022-09-07T20:26:53.271Z,7.97
2022-09-07T20:29:28.906Z,7.92
2022-09-07T20:31:57.513Z,7.88
2022-09-07T20:34:24.547Z,7.84
2022-09-07T20:36:51.801Z,7.81
2022-09-07T20:39:19.145Z,7.78
2022-09-07T20:41:46.613Z,7.75
2022-09-07T20:44:14.272Z,7.74
2022-09-07T20:46:41.561Z,7.74
2022-09-07T20:49:08.643Z,7.75
2022-09-07T20:51:35.616Z,7.77
2022-09-07T20:54:02.536Z,7.85
2022-09-07T20:56:29.445Z,7.93
2022-09-07T20:58:57.452Z,8.01
2022-09-07T21:01:24.431Z,8.09
2022-09-07T21:03:52.822Z,8.15
2022-09-07T21:06:20.858Z,8.20
2022-09-07T21:08:47.650Z,8.29
2022-09-07T21:11:15.865Z,8.39
2022-09-07T21:13:42.953Z,8.48
2022-09-07T21:16:11.346Z,8.57
2022-09-07T21:18:38.827Z,8.66
2022-09-07T21:21:21.646Z,8.70
2022-09-07T21:23:48.674Z,8.74
2022-09-07T21:26:19.765Z,8.78
2022-09-07T21:28:46.464Z,8.81
2022-09-07T21:31:13.205Z,8.84
2022-09-07T21:33:40.221Z,8.86
2022-09-07T21:36:12.817Z,8.90
2022-09-07T21:38:42.768Z,8.93
2022-09-07T21:41:10.951Z,8.95
2022-09-07T21:43:37.637Z,8.97
2022-09-07T21:46:08.276Z,8.98
2022-09-07T21:48:35.360Z,8.99
2022-09-07T21:51:02.283Z,9.01
2022-09-07T21:53:29.495Z,9.02
2022-09-07T21:55:56.970Z,9.04
2022-09-07T21:58:24.007Z,9.04
2022-09-07T22:00:51.274Z,9.02
2022-09-07T22:03:18.234Z,9.04
2022-09-07T22:05:44.927Z,9.05
2022-09-07T22:08:14.530Z,9.05
2022-09-07T22:10:44.395Z,9.04
2022-09-07T22:13:45.317Z,9.02
2022-09-07T22:16:16.608Z,9.03
2022-09-07T22:18:44.687Z,9.04
2022-09-07T22:21:12.927Z,9.06
2022-09-07T22:23:41.568Z,9.07
2022-09-07T22:26:08.720Z,9.04
2022-09-07T22:28:36.405Z,9.02
2022-09-07T22:31:35.595Z,9.01
2022-09-07T22:34:03.676Z,8.98
2022-09-07T22:36:32.438Z,8.95
2022-09-07T22:39:00.767Z,8.89
2022-09-07T22:41:31.681Z,8.86
2022-09-07T22:43:59.044Z,8.82
2022-09-07T22:46:26.890Z,8.79
2022-09-07T22:48:55.441Z,8.77
2022-09-07T22:51:23.221Z,8.78
2022-09-07T22:53:49.951Z,8.75
2022-09-07T22:56:18.660Z,8.73
2022-09-07T22:58:54.432Z,8.70
2022-09-07T23:01:21.980Z,8.71
2022-09-07T23:03:49.390Z,8.70
2022-09-07T23:06:26.238Z,8.71
2022-09-07T23:08:54.153Z,8.68
2022-09-07T23:11:21.406Z,8.69
2022-09-07T23:13:52.813Z,8.71
2022-09-07T23:16:20.069Z,8.69
2022-09-07T23:18:47.176Z,8.68
2022-09-07T23:21:14.457Z,8.68
2022-09-07T23:23:41.350Z,8.68
2022-09-07T23:26:08.298Z,8.70
2022-09-07T23:28:35.395Z,8.70
2022-09-07T23:31:02.356Z,8.71
2022-09-07T23:33:29.198Z,8.70
2022-09-07T23:36:06.082Z,8.71
2022-09-07T23:38:33.017Z,8.69
2022-09-07T23:41:00.346Z,8.66
2022-09-07T23:43:27.848Z,8.65
2022-09-07T23:45:55.044Z,8.66
2022-09-07T23:48:22.326Z,8.68
2022-09-07T23:50:48.948Z,8.68
2022-09-07T23:53:15.811Z,8.67
2022-09-07T23:55:42.912Z,8.66
2022-09-07T23:58:09.763Z,8.67
